.
WxDataArchive / Data Records for 2008-10-24
2008-10-23 October 2008 2008-10-25

Data Records for Friday, 24 October 2008

Time	Temp	Chill	HIndex	Humid	Dewpt	 Wind 	HiWind	WindDir	Rain 	Barom 
-----	----	-----	------	-----	-----	------	------	-------	-----	----- 
00:00	45.2	45.2	45.2	58	31.3	2	4	90	0.00	30.196 
00:05	45.2	45.2	45.2	57	30.9	1	4	90	0.00	30.185 
00:10	45.2	45.2	45.2	57	30.9	1	3	68	0.00	30.182 
00:15	45.2	45.2	45.2	57	30.9	1	4	90	0.00	30.174 
00:20	45.2	45.2	45.2	57	30.9	1	4	90	0.00	30.180 
00:25	45.2	45.2	45.2	56	30.4	1	3	112	0.00	30.173 
00:30	45.4	45.4	45.4	56	30.6	1	2	90	0.00	30.172 
00:35	45.4	45.4	45.4	56	30.6	0	2	90	0.00	30.167 
00:40	45.4	45.4	45.4	56	30.6	1	3	90	0.00	30.165 
00:45	45.4	45.4	45.4	56	30.6	1	3	112	0.00	30.165 
00:50	45.4	45.4	45.4	56	30.6	1	3	68	0.00	30.162 
00:55	45.4	45.4	45.4	56	30.6	1	5	112	0.00	30.153 
01:00	45.4	45.4	45.4	56	30.6	1	2	112	0.00	30.149 
01:05	45.4	45.4	45.4	56	30.6	1	4	112	0.00	30.145 
01:10	45.4	45.4	45.4	56	30.6	1	3	112	0.00	30.143 
01:15	45.2	45.2	45.2	57	30.9	1	3	90	0.00	30.137 
01:20	45.2	45.2	45.2	57	30.9	1	3	90	0.00	30.135 
01:25	45.2	45.2	45.2	58	31.3	0	1	90	0.00	30.134 
01:30	45.2	45.2	45.2	57	30.9	1	2	90	0.00	30.134 
01:35	45.2	45.2	45.2	58	31.3	0	2	90	0.00	30.132 
01:40	45.2	45.2	45.2	57	30.9	0	2	90	0.00	30.130 
01:45	45.2	45.2	45.2	58	31.3	0	2	90	0.00	30.127 
01:50	45.4	45.4	45.4	57	31.1	1	3	90	0.00	30.120 
01:55	45.5	45.5	45.5	57	31.2	1	4	90	0.00	30.119 
02:00	45.7	45.7	45.7	57	31.3	1	3	90	0.00	30.118 
02:05	45.8	45.8	45.8	56	31.0	1	3	68	0.00	30.119 
02:10	46.0	46.0	46.0	56	31.2	1	3	90	0.00	30.118 
02:15	46.1	46.1	46.1	55	30.8	1	3	90	0.00	30.123 
02:20	46.2	46.2	46.2	54	30.5	1	4	90	0.00	30.116 
02:25	46.4	46.4	46.4	54	30.7	1	3	90	0.00	30.115 
02:30	46.5	46.5	46.5	55	31.2	1	3	90	0.00	30.112 
02:35	46.5	46.5	46.5	54	30.8	1	4	90	0.00	30.111 
02:40	46.5	46.5	46.5	54	30.8	1	3	90	0.00	30.101 
02:45	46.5	46.5	46.5	55	31.2	1	3	90	0.00	30.099 
02:50	46.5	46.5	46.5	55	31.2	0	2	90	0.00	30.106 
02:55	46.4	46.4	46.4	55	31.1	0	1	90	0.00	30.109 
03:00	46.4	46.4	46.4	55	31.1	0	2	90	0.00	30.111 
03:05	46.4	46.4	46.4	55	31.1	1	3	90	0.00	30.100 
03:10	46.2	46.2	46.2	56	31.4	1	5	90	0.00	30.091 
03:15	46.1	46.1	46.1	57	31.7	1	3	90	0.00	30.094 
03:20	46.1	46.1	46.1	57	31.7	1	5	90	0.00	30.097 
03:25	46.1	46.1	46.1	57	31.7	0	2	90	0.00	30.093 
03:30	46.0	46.0	46.0	57	31.6	0	2	90	0.00	30.091 
03:35	46.0	46.0	46.0	58	32.1	0	2	90	0.00	30.084 
03:40	45.8	45.8	45.8	58	31.9	1	3	90	0.00	30.082 
03:45	45.8	45.8	45.8	58	31.9	1	3	90	0.00	30.079 
03:50	45.7	45.7	45.7	58	31.8	1	2	90	0.00	30.080 
03:55	45.7	45.7	45.7	58	31.8	1	2	90	0.00	30.079 
04:00	45.5	45.5	45.5	59	32.0	0	2	90	0.00	30.080 
04:05	45.4	45.4	45.4	59	31.9	0	2	90	0.00	30.081 
04:10	45.4	45.4	45.4	60	32.3	0	1	90	0.00	30.081 
04:15	45.2	45.2	45.2	60	32.1	0	1	90	0.00	30.082 
04:20	45.2	45.2	45.2	61	32.6	0	1	90	0.00	30.083 
04:25	45.2	45.2	45.2	61	32.6	0	2	90	0.00	30.082 
04:30	45.2	45.2	45.2	61	32.6	1	3	90	0.00	30.076 
04:35	45.2	45.2	45.2	61	32.6	0	2	90	0.00	30.078 
04:40	45.2	45.2	45.2	60	32.1	1	2	90	0.00	30.079 
04:45	45.4	45.4	45.4	61	32.7	1	2	90	0.00	30.078 
04:50	45.4	45.4	45.4	61	32.7	1	3	90	0.00	30.075 
04:55	45.4	45.4	45.4	61	32.7	0	2	90	0.00	30.080 
05:00	45.5	45.5	45.5	61	32.8	0	1	90	0.00	30.076 
05:05	45.5	45.5	45.5	62	33.2	0	2	90	0.00	30.075 
05:10	45.5	45.5	45.5	62	33.2	0	1	90	0.00	30.073 
05:15	45.5	45.5	45.5	62	33.2	0	0	---	0.00	30.076 
05:20	45.7	45.7	45.7	62	33.4	0	1	90	0.00	30.076 
05:25	45.8	45.8	45.8	62	33.5	0	3	90	0.00	30.072 
05:30	46.0	46.0	46.0	61	33.3	0	2	90	0.00	30.075 
05:35	46.1	46.1	46.1	61	33.4	0	2	90	0.00	30.071 
05:40	46.1	46.1	46.1	61	33.4	0	1	90	0.00	30.071 
05:45	46.2	46.2	46.2	61	33.5	0	0	---	0.00	30.072 
05:50	46.2	46.2	46.2	61	33.5	0	1	90	0.00	30.074 
05:55	46.2	46.2	46.2	62	33.9	0	1	90	0.00	30.074 
06:00	46.2	46.2	46.2	62	33.9	0	1	90	0.00	30.077 
06:05	46.2	46.2	46.2	62	33.9	0	1	90	0.00	30.082 
06:10	46.2	46.2	46.2	63	34.3	0	1	90	0.00	30.084 
06:15	46.2	46.2	46.2	64	34.7	0	1	90	0.00	30.087 
06:20	46.1	46.1	46.1	65	35.0	0	0	---	0.00	30.087 
06:25	46.1	46.1	46.1	68	36.1	0	0	---	0.00	30.086 
06:30	46.1	46.1	46.1	69	36.5	0	0	---	0.01	30.091 
06:35	46.0	46.0	46.0	73	37.8	0	0	---	0.00	30.091 
06:40	45.8	45.8	45.8	76	38.7	0	0	---	0.00	30.092 
06:45	45.5	45.5	45.5	78	39.0	0	0	---	0.01	30.090 
06:50	45.2	45.2	45.2	78	38.8	0	1	90	0.00	30.089 
06:55	44.9	44.9	44.9	80	39.1	0	0	---	0.00	30.088 
07:00	44.8	44.8	44.8	82	39.6	0	0	---	0.01	30.084 
07:05	44.6	44.6	44.6	84	40.1	0	0	---	0.00	30.088 
07:10	44.6	44.6	44.6	85	40.4	0	0	---	0.02	30.086 
07:15	44.6	44.6	44.6	86	40.7	0	0	---	0.01	30.087 
07:20	44.5	44.5	44.5	87	40.9	0	1	90	0.01	30.087 
07:25	44.5	44.5	44.5	88	41.2	0	1	90	0.00	30.088 
07:30	44.5	44.5	44.5	89	41.5	0	1	90	0.01	30.079 
07:35	44.3	44.3	44.3	89	41.3	0	1	90	0.00	30.077 
07:40	44.5	44.5	44.5	89	41.5	0	1	90	0.01	30.075 
07:45	44.5	44.5	44.5	90	41.8	0	0	---	0.00	30.078 
07:50	44.5	44.5	44.5	90	41.8	0	0	---	0.01	30.080 
07:55	44.5	44.5	44.5	90	41.8	0	0	---	0.00	30.077 
08:00	44.6	44.6	44.6	91	42.1	0	1	90	0.01	30.075 
08:05	44.8	44.8	44.8	91	42.3	0	1	90	0.00	30.078 
08:10	44.8	44.8	44.8	91	42.3	0	1	90	0.00	30.078 
08:15	44.9	44.9	44.9	92	42.7	0	1	90	0.01	30.078 
08:20	44.9	44.9	44.9	92	42.7	0	1	90	0.01	30.077 
08:25	45.1	45.1	45.1	92	42.9	0	1	90	0.01	30.076 
08:30	45.1	45.1	45.1	92	42.9	0	2	90	0.00	30.077 
08:35	45.2	45.2	45.2	92	43.0	0	1	90	0.01	30.077 
08:40	45.2	45.2	45.2	92	43.0	0	1	90	0.00	30.077 
08:45	45.2	45.2	45.2	93	43.3	0	1	90	0.02	30.078 
08:50	45.4	45.4	45.4	93	43.5	0	1	90	0.01	30.078 
08:55	45.4	45.4	45.4	93	43.5	0	1	112	0.02	30.077 
09:00	45.4	45.4	45.4	93	43.5	0	1	112	0.02	30.074 
09:05	45.4	45.4	45.4	93	43.5	0	1	112	0.01	30.075 
09:10	45.5	45.5	45.5	93	43.6	0	1	112	0.01	30.074 
09:15	45.5	45.5	45.5	94	43.9	0	1	112	0.02	30.067 
09:20	45.5	45.5	45.5	94	43.9	0	1	112	0.01	30.067 
09:25	45.7	45.7	45.7	94	44.1	0	1	112	0.02	30.071 
09:30	45.7	45.7	45.7	94	44.1	0	1	112	0.01	30.072 
09:35	45.7	45.7	45.7	94	44.1	0	1	112	0.02	30.073 
09:40	45.8	45.8	45.8	94	44.2	0	1	112	0.02	30.068 
09:45	45.8	45.8	45.8	94	44.2	0	2	112	0.02	30.070 
09:50	45.8	45.8	45.8	94	44.2	0	1	112	0.02	30.069 
09:55	45.8	45.8	45.8	94	44.2	0	1	112	0.02	30.061 
10:00	46.0	46.0	46.0	95	44.6	0	1	112	0.02	30.064 
10:05	46.0	46.0	46.0	95	44.6	0	1	112	0.01	30.066 
10:10	46.0	46.0	46.0	95	44.6	0	1	112	0.01	30.062 
10:15	46.1	46.1	46.1	95	44.7	0	0	---	0.01	30.062 
10:20	46.1	46.1	46.1	95	44.7	0	1	112	0.01	30.064 
10:25	46.2	46.2	46.2	95	44.8	0	2	112	0.00	30.062 
10:30	46.4	46.4	46.4	95	45.0	0	1	112	0.01	30.060 
10:35	46.4	46.4	46.4	95	45.0	0	2	112	0.01	30.061 
10:40	46.5	46.5	46.5	95	45.1	0	1	112	0.02	30.059 
10:45	46.5	46.5	46.5	95	45.1	0	0	---	0.01	30.056 
10:50	46.5	46.5	46.5	95	45.1	0	0	---	0.01	30.048 
10:55	46.7	46.7	46.7	95	45.3	0	1	112	0.02	30.046 
11:00	46.8	46.8	46.8	95	45.4	0	0	---	0.01	30.044 
11:05	47.0	47.0	47.0	96	45.9	0	1	112	0.00	30.040 
11:10	47.3	47.3	47.3	96	46.2	0	1	112	0.00	30.035 
11:15	47.4	47.4	47.4	96	46.3	0	1	112	0.01	30.027 
11:20	47.6	47.6	47.6	96	46.5	0	3	112	0.01	30.029 
11:25	47.9	47.9	47.9	96	46.8	1	3	112	0.00	30.022 
11:30	47.9	47.9	47.9	96	46.8	0	2	112	0.00	30.011 
11:35	48.0	48.0	48.0	96	46.9	0	1	112	0.01	30.004 
11:40	48.2	48.2	48.2	96	47.1	0	2	112	0.00	30.004 
11:45	48.3	48.3	48.3	96	47.2	0	1	112	0.00	30.006 
11:50	48.3	48.3	48.3	96	47.2	0	2	112	0.00	30.004 
11:55	48.5	48.5	48.5	96	47.4	0	2	112	0.01	30.004 
12:00	48.6	48.6	48.6	96	47.5	0	2	112	0.00	30.008 
12:05	48.6	48.6	48.6	96	47.5	0	2	68	0.00	30.006 
12:10	48.6	48.6	48.6	96	47.5	1	3	90	0.01	30.002 
12:15	48.6	48.6	48.6	96	47.5	0	2	90	0.00	30.001 
12:20	48.6	48.6	48.6	96	47.5	0	2	135	0.01	30.005 
12:25	48.8	48.8	48.8	96	47.7	0	2	158	0.01	30.003 
12:30	48.8	48.8	48.8	96	47.7	0	2	158	0.00	29.995 
12:35	48.8	48.8	48.8	96	47.7	0	2	90	0.01	29.993 
12:40	48.8	48.8	48.8	96	47.7	0	2	90	0.01	29.980 
12:45	48.8	48.8	48.8	96	47.7	0	1	90	0.01	29.979 
12:50	48.8	48.8	48.8	96	47.7	0	3	90	0.01	29.979 
12:55	48.8	48.8	48.8	96	47.7	0	2	90	0.00	29.972 
13:00	48.9	48.9	48.9	96	47.8	0	2	90	0.01	29.959 
13:05	48.9	48.9	48.9	96	47.8	1	3	90	0.00	29.948 
13:10	48.9	48.9	48.9	96	47.8	0	2	90	0.01	29.950 
13:15	48.9	48.9	48.9	96	47.8	0	2	90	0.00	29.954 
13:20	49.1	49.1	49.1	96	48.0	1	4	90	0.00	29.960 
13:25	49.1	49.1	49.1	96	48.0	1	4	90	0.01	29.957 
13:30	49.1	49.1	49.1	96	48.0	0	2	68	0.00	29.962 
13:35	49.1	49.1	49.1	96	48.0	1	3	135	0.00	29.963 
13:40	49.2	49.2	49.2	96	48.1	1	3	112	0.01	29.961 
13:45	49.1	49.1	49.1	96	48.0	1	4	90	0.00	29.960 
13:50	49.1	49.1	49.1	96	48.0	0	3	68	0.01	29.962 
13:55	49.2	49.2	49.2	96	48.1	1	4	90	0.01	29.955 
14:00	49.2	49.2	49.2	96	48.1	0	2	90	0.00	29.950 
14:05	49.2	49.2	49.2	96	48.1	1	3	90	0.01	29.949 
14:10	49.2	49.2	49.2	96	48.1	1	4	112	0.01	29.958 
14:15	49.2	49.2	49.2	96	48.1	1	4	112	0.01	29.950 
14:20	49.2	49.2	49.2	96	48.1	1	5	90	0.00	29.951 
14:25	49.2	49.2	49.2	96	48.1	0	2	90	0.00	29.946 
14:30	49.1	49.1	49.1	96	48.0	0	3	112	0.01	29.944 
14:35	49.1	49.1	49.1	96	48.0	0	2	112	0.00	29.947 
14:40	49.1	49.1	49.1	96	48.0	0	3	112	0.00	29.954 
14:45	49.1	49.1	49.1	96	48.0	0	3	90	0.00	29.955 
14:50	49.1	49.1	49.1	96	48.0	0	2	90	0.00	29.956 
14:55	48.9	48.9	48.9	96	47.8	1	3	270	0.00	29.957 
15:00	48.9	48.9	48.9	96	47.8	0	2	45	0.01	29.958 
15:05	48.9	48.9	48.9	96	47.8	0	3	270	0.01	29.952 
15:10	48.9	48.9	48.9	96	47.8	0	2	270	0.01	29.947 
15:15	48.9	48.9	48.9	96	47.8	0	1	270	0.01	29.945 
15:20	48.9	48.9	48.9	96	47.8	0	1	270	0.01	29.945 
15:25	48.9	48.9	48.9	96	47.8	0	1	270	0.00	29.946 
15:30	48.9	48.9	48.9	96	47.8	0	3	248	0.01	29.946 
15:35	48.9	48.9	48.9	96	47.8	0	1	248	0.00	29.943 
15:40	48.9	48.9	48.9	96	47.8	0	4	270	0.00	29.942 
15:45	48.9	48.9	48.9	96	47.8	0	3	270	0.01	29.945 
15:50	48.8	48.8	48.8	96	47.7	0	2	270	0.00	29.945 
15:55	48.8	48.8	48.8	96	47.7	0	3	248	0.00	29.940 
16:00	48.6	48.6	48.6	96	47.5	0	4	248	0.00	29.946 
16:05	48.6	48.6	48.6	96	47.5	0	1	248	0.00	29.947 
16:10	48.8	48.8	48.8	96	47.7	0	2	248	0.00	29.947 
16:15	48.8	48.8	48.8	96	47.7	0	2	248	0.00	29.946 
16:20	48.8	48.8	48.8	96	47.7	0	1	248	0.00	29.944 
16:25	48.8	48.8	48.8	96	47.7	0	2	248	0.00	29.942 
16:30	48.8	48.8	48.8	96	47.7	0	1	248	0.00	29.941 
16:35	48.8	48.8	48.8	96	47.7	0	2	248	0.00	29.937 
16:40	48.9	48.9	48.9	96	47.8	0	2	248	0.00	29.933 
16:45	48.9	48.9	48.9	96	47.8	0	1	248	0.00	29.931 
16:50	48.9	48.9	48.9	96	47.8	0	0	---	0.00	29.930 
16:55	48.9	48.9	48.9	96	47.8	0	1	248	0.00	29.930 
17:00	48.9	48.9	48.9	96	47.8	0	0	---	0.00	29.930 
17:05	48.9	48.9	48.9	96	47.8	0	1	248	0.00	29.931 
17:10	48.9	48.9	48.9	96	47.8	0	0	---	0.00	29.931 
17:15	48.8	48.8	48.8	96	47.7	0	1	248	0.00	29.931 
17:20	48.8	48.8	48.8	96	47.7	0	2	248	0.00	29.932 
17:25	48.8	48.8	48.8	96	47.7	0	1	225	0.00	29.930 
17:30	48.6	48.6	48.6	96	47.5	0	1	225	0.00	29.931 
17:35	48.6	48.6	48.6	96	47.5	0	2	225	0.00	29.929 
17:40	48.6	48.6	48.6	96	47.5	0	1	225	0.00	29.928 
17:45	48.6	48.6	48.6	96	47.5	0	2	225	0.00	29.927 
17:50	48.6	48.6	48.6	96	47.5	0	2	225	0.00	29.927 
17:55	48.5	48.5	48.5	96	47.4	0	2	225	0.00	29.930 
18:00	48.5	48.5	48.5	96	47.4	0	1	225	0.00	29.930 
18:05	48.5	48.5	48.5	96	47.4	0	1	225	0.00	29.931 
18:10	48.5	48.5	48.5	96	47.4	0	2	202	0.00	29.931 
18:15	48.5	48.5	48.5	96	47.4	0	2	158	0.00	29.931 
18:20	48.5	48.5	48.5	96	47.4	1	2	112	0.00	29.931 
18:25	48.5	48.5	48.5	96	47.4	0	1	112	0.00	29.930 
18:30	48.3	48.3	48.3	96	47.2	0	1	112	0.00	29.932 
18:35	48.3	48.3	48.3	96	47.2	0	1	112	0.00	29.932 
18:40	48.3	48.3	48.3	96	47.2	0	2	112	0.00	29.931 
18:45	48.3	48.3	48.3	96	47.2	0	1	112	0.00	29.932 
18:50	48.2	48.2	48.2	96	47.1	0	1	112	0.00	29.931 
18:55	48.2	48.2	48.2	96	47.1	0	1	112	0.00	29.928 
19:00	48.2	48.2	48.2	96	47.1	0	2	112	0.00	29.925 
19:05	48.2	48.2	48.2	96	47.1	0	1	112	0.00	29.923 
19:10	48.2	48.2	48.2	96	47.1	0	1	112	0.00	29.923 
19:15	48.2	48.2	48.2	96	47.1	0	0	---	0.00	29.926 
19:20	48.2	48.2	48.2	96	47.1	0	2	90	0.00	29.928 
19:25	48.2	48.2	48.2	96	47.1	0	2	90	0.00	29.925 
19:30	48.2	48.2	48.2	96	47.1	0	2	90	0.00	29.925 
19:35	48.2	48.2	48.2	96	47.1	0	1	90	0.00	29.924 
19:40	48.2	48.2	48.2	96	47.1	0	2	112	0.00	29.922 
19:45	48.0	48.0	48.0	96	46.9	0	2	112	0.00	29.921 
19:50	48.0	48.0	48.0	96	46.9	0	1	112	0.00	29.918 
19:55	48.0	48.0	48.0	96	46.9	0	1	112	0.00	29.917 
20:00	48.0	48.0	48.0	95	46.6	0	1	112	0.00	29.916 
20:05	47.9	47.9	47.9	95	46.5	0	1	112	0.00	29.916 
20:10	47.7	47.7	47.7	95	46.3	0	1	112	0.00	29.917 
20:15	47.6	47.6	47.6	95	46.2	0	2	112	0.00	29.918 
20:20	47.6	47.6	47.6	95	46.2	0	1	112	0.00	29.918 
20:25	47.4	47.4	47.4	95	46.0	0	2	112	0.00	29.920 
20:30	47.4	47.4	47.4	95	46.0	0	2	112	0.00	29.924 
20:35	47.4	47.4	47.4	95	46.0	0	3	112	0.00	29.923 
20:40	47.4	47.4	47.4	95	46.0	0	1	112	0.00	29.922 
20:45	47.4	47.4	47.4	95	46.0	0	1	112	0.00	29.919 
20:50	47.4	47.4	47.4	95	46.0	0	1	112	0.00	29.917 
20:55	47.3	47.3	47.3	95	45.9	0	1	112	0.00	29.918 
21:00	47.3	47.3	47.3	95	45.9	0	1	112	0.00	29.918 
21:05	47.1	47.1	47.1	95	45.7	0	2	112	0.00	29.917 
21:10	47.1	47.1	47.1	95	45.7	1	5	112	0.00	29.916 
21:15	47.1	47.1	47.1	95	45.7	1	3	90	0.00	29.913 
21:20	47.0	47.0	47.0	95	45.6	0	5	90	0.00	29.912 
21:25	47.0	47.0	47.0	95	45.6	0	2	90	0.00	29.909 
21:30	46.8	46.8	46.8	95	45.4	0	2	90	0.00	29.900 
21:35	46.5	46.5	46.5	95	45.1	1	3	90	0.00	29.885 
21:40	46.4	46.4	46.4	95	45.0	1	4	68	0.00	29.871 
21:45	46.2	46.2	46.2	95	44.8	0	2	68	0.00	29.887 
21:50	46.1	46.1	46.1	95	44.7	0	1	68	0.00	29.895 
21:55	46.1	46.1	46.1	95	44.7	0	1	68	0.00	29.897 
22:00	46.1	46.1	46.1	95	44.7	0	2	68	0.00	29.898 
22:05	46.1	46.1	46.1	95	44.7	0	4	68	0.00	29.898 
22:10	46.2	46.2	46.2	95	44.8	0	4	112	0.00	29.894 
22:15	46.4	46.4	46.4	95	45.0	0	2	90	0.00	29.888 
22:20	46.5	46.5	46.5	95	45.1	1	3	90	0.00	29.887 
22:25	46.5	46.5	46.5	95	45.1	0	2	90	0.00	29.886 
22:30	46.5	46.5	46.5	95	45.1	0	1	90	0.00	29.888 
22:35	46.5	46.5	46.5	95	45.1	0	1	90	0.00	29.887 
22:40	46.5	46.5	46.5	94	44.9	0	1	90	0.00	29.888 
22:45	46.5	46.5	46.5	94	44.9	0	1	90	0.00	29.885 
22:50	46.5	46.5	46.5	94	44.9	0	2	90	0.00	29.884 
22:55	46.7	46.7	46.7	94	45.1	0	2	90	0.00	29.883 
23:00	46.5	46.5	46.5	94	44.9	0	2	112	0.00	29.881 
23:05	46.7	46.7	46.7	94	45.1	0	2	112	0.00	29.875 
23:10	46.7	46.7	46.7	93	44.8	0	1	112	0.00	29.873 
23:15	46.5	46.5	46.5	93	44.6	0	2	112	0.00	29.869 
23:20	46.5	46.5	46.5	93	44.6	0	2	112	0.00	29.868 
23:25	46.5	46.5	46.5	93	44.6	0	1	112	0.00	29.868 
23:30	46.7	46.7	46.7	93	44.8	0	2	112	0.00	29.866 
23:35	46.7	46.7	46.7	93	44.8	1	5	112	0.00	29.865 
23:40	46.8	46.8	46.8	92	44.6	0	3	112	0.00	29.862 
23:45	46.8	46.8	46.8	92	44.6	1	3	68	0.00	29.858 
23:50	46.8	46.8	46.8	92	44.6	1	3	90	0.00	29.855 
23:55	47.0	47.0	47.0	92	44.8	0	2	90	0.00	29.851 

CoCoRaHS
IN-AL-39
A2 Web Hosting
Creative Commons License
GoDaddy
Look for:

loaded 2017-12-13 10:20:06 • last modified 2010-11-18 10:43:29
Privacy PolicyDisclaimer
• wx.awcolley.com is powered by PmWiki v.2002016 •
• all content (unless otherwise noted) © 2017 A W Colley